Time;durP1;ratioP1;P1;durP2;ratioP2;P2;SDS_P1;SDS_P2;PMS_P1;PMS_P2;Temp;Humidity;BMP_temperature;BMP_pressure;BME280_temperature;BME280_humidity;BME280_pressure;Samples;Min_cycle;Max_cycle;Signal;HPM_P1;HPM_P2
2023/08/15 07:01:35;;;;;;;0.10;0.10;;;26.50;99.90;30.80;101357.00;;;;6247828;22;2158245;-75
2023/08/15 07:04:03;;;;;;;0.13;0.13;;;26.10;99.90;31.30;101378.00;;;;6312848;22;20159;-75
2023/08/15 07:06:46;;;;;;;0.30;0.30;;;26.70;99.90;30.90;101390.00;;;;6312972;22;20227;-75
2023/08/15 07:09:11;;;;;;;1.30;0.50;;;27.00;99.90;31.10;101372.00;;;;6286774;22;20230;-75
2023/08/15 07:11:46;;;;;;;0.10;0.10;;;27.80;99.90;31.90;101407.00;;;;6287344;22;20192;-75
2023/08/15 07:14:21;;;;;;;0.10;0.10;;;27.40;99.90;34.40;101377.00;;;;6286916;22;20155;-75
2023/08/15 07:16:51;;;;;;;0.98;0.63;;;28.80;99.90;33.90;101377.00;;;;6313335;22;20143;-75
2023/08/15 07:19:29;;;;;;;0.13;0.13;;;29.20;99.90;29.80;101430.00;;;;6340088;22;20474;-74
2023/08/15 07:22:10;;;;;;;0.20;0.20;;;27.60;99.90;31.70;101424.00;;;;6313093;22;20174;-75
2023/08/15 07:24:58;;;;;;;0.10;0.10;;;26.90;99.90;31.60;101383.00;;;;6313461;22;20218;-75
2023/08/15 07:27:31;;;;;;;0.10;0.10;;;27.90;99.90;33.50;101407.00;;;;6292219;22;20162;-75
2023/08/15 07:30:03;;;;;;;0.10;0.10;;;28.30;99.90;36.70;101323.00;;;;6286740;22;20221;-75
2023/08/15 07:32:34;;;;;;;0.85;0.82;;;30.40;99.90;33.80;101397.00;;;;6313798;22;20151;-74
2023/08/15 07:35:07;;;;;;;0.85;0.52;;;30.70;99.90;26.80;101437.00;;;;6312996;22;20193;-72
2023/08/15 07:37:40;;;;;;;4.75;1.05;;;26.00;99.90;27.30;101422.00;;;;6312692;22;20567;-74
2023/08/15 07:40:20;;;;;;;0.13;0.13;;;24.80;99.90;29.30;101418.00;;;;6286762;22;20159;-75
2023/08/15 07:42:49;;;;;;;0.20;0.20;;;25.10;99.90;28.20;101442.00;;;;6287175;22;20171;-73
2023/08/15 07:45:22;;;;;;;0.20;0.20;;;25.30;99.90;28.70;101357.00;;;;6339982;22;20158;-74
2023/08/15 07:47:52;;;;;;;0.20;0.20;;;24.90;99.90;31.00;101424.00;;;;6286550;22;20152;-75
2023/08/15 07:50:27;;;;;;;0.10;0.10;;;26.10;99.90;31.20;101444.00;;;;6313398;22;20457;-75
2023/08/15 07:53:00;;;;;;;0.20;0.20;;;26.80;99.90;29.30;101446.00;;;;6312194;22;20585;-74
2023/08/15 07:55:32;;;;;;;0.10;0.10;;;26.20;99.90;32.50;101445.00;;;;6312955;22;20139;-75
2023/08/15 07:58:09;;;;;;;0.10;0.10;;;27.20;99.90;31.90;101448.00;;;;6312438;22;20560;-74
2023/08/15 08:00:56;;;;;;;0.22;0.22;;;27.60;99.90;29.40;101477.00;;;;6312103;22;20168;-75
2023/08/15 08:03:29;;;;;;;0.20;0.20;;;26.40;99.90;30.60;101451.00;;;;6339953;22;20193;-75
2023/08/15 08:05:59;;;;;;;0.20;0.20;;;26.30;99.90;28.80;101459.00;;;;6285349;22;20159;-74
2023/08/15 08:08:31;;;;;;;0.10;0.10;;;25.70;99.90;30.80;101425.00;;;;6285376;22;20246;-74
2023/08/15 08:11:00;;;;;;;2.28;0.30;;;26.40;99.90;30.50;101451.00;;;;6313197;22;20147;-74
2023/08/15 08:13:35;;;;;;;0.55;0.55;;;26.60;99.90;29.40;101480.00;;;;6312485;22;20254;-75
2023/08/15 08:16:01;;;;;;;12.45;0.57;;;26.30;99.90;30.50;101460.00;;;;6337761;22;20583;-75
2023/08/15 08:18:33;;;;;;;0.10;0.10;;;26.00;99.90;31.50;101458.00;;;;6339710;22;20460;-75
2023/08/15 08:21:09;;;;;;;0.10;0.10;;;27.30;99.90;31.30;101466.00;;;;6284927;22;20217;-74
2023/08/15 08:23:38;;;;;;;0.20;0.20;;;27.10;99.90;30.50;101478.00;;;;6286885;22;20175;-75
2023/08/15 08:26:14;;;;;;;0.10;0.10;;;26.70;99.90;32.20;101456.00;;;;6311978;22;20136;-75
2023/08/15 08:28:50;;;;;;;0.80;0.57;;;27.20;99.90;33.50;101452.00;;;;6339688;22;20143;-74
2023/08/15 08:31:16;;;;;;;1.60;0.70;;;28.30;99.90;28.40;101509.00;;;;6339242;22;20160;-74
2023/08/15 08:33:46;;;;;;;0.32;0.32;;;27.20;99.90;29.80;101486.00;;;;6286649;22;20163;-75
2023/08/15 08:36:24;;;;;;;0.13;0.13;;;26.70;99.90;30.10;101484.00;;;;6310827;22;20496;-73
2023/08/15 08:38:59;;;;;;;2.45;0.60;;;26.50;99.90;30.80;101486.00;;;;6312499;22;20185;-74
2023/08/15 08:41:26;;;;;;;0.68;0.28;;;26.70;99.90;30.40;101488.00;;;;6311919;22;20568;-74
2023/08/15 08:43:52;;;;;;;0.10;0.10;;;27.00;99.90;28.50;101473.00;;;;6312236;22;20607;-75
2023/08/15 08:46:18;;;;;;;1.40;0.60;;;26.10;99.90;29.00;101491.00;;;;6286131;22;20159;-72
2023/08/15 08:48:48;;;;;;;0.10;0.10;;;26.20;99.90;28.20;101468.00;;;;6312199;22;20472;-75
2023/08/15 08:51:19;;;;;;;0.25;0.25;;;25.40;99.90;31.70;101452.00;;;;6311843;22;20151;-75
2023/08/15 08:53:45;;;;;;;0.10;0.10;;;26.70;99.90;32.10;101469.00;;;;6286664;22;20156;-75
2023/08/15 08:56:17;;;;;;;1.42;0.90;;;27.50;99.90;30.40;101478.00;;;;6311475;22;20189;-75
2023/08/15 08:58:48;;;;;;;0.10;0.10;;;27.30;99.90;30.30;101444.00;;;;6311933;22;20136;-75
2023/08/15 09:01:16;;;;;;;0.10;0.10;;;27.00;99.90;34.20;101451.00;;;;6285391;22;20237;-75
2023/08/15 09:03:45;;;;;;;6.18;1.92;;;29.10;99.90;33.30;101411.00;;;;6285922;22;20171;-74
2023/08/15 09:06:20;;;;;;;0.40;0.40;;;29.20;99.90;31.60;101484.00;;;;6338724;22;20639;-74
2023/08/15 09:08:49;;;;;;;0.38;0.38;;;28.40;99.90;28.50;101523.00;;;;6312002;22;20151;-75
2023/08/15 09:11:26;;;;;;;0.10;0.10;;;26.80;99.90;27.50;101497.00;;;;6339014;22;20232;-74
2023/08/15 09:13:53;;;;;;;0.47;0.40;;;25.10;99.90;28.20;101471.00;;;;6312128;22;20144;-75
2023/08/15 09:16:47;;;;;;;5.57;0.32;;;24.50;99.90;28.80;101490.00;;;;6285531;22;20148;-75
2023/08/15 09:19:17;;;;;;;0.73;0.30;;;24.70;99.90;27.60;101497.00;;;;6311175;22;20173;-74
2023/08/15 09:21:44;;;;;;;0.93;0.45;;;24.70;99.90;26.40;101429.00;;;;6311879;22;20140;-77
2023/08/15 09:24:10;;;;;;;2.17;1.17;;;24.00;99.90;27.00;101429.00;;;;6285884;22;20645;-74
2023/08/15 09:26:56;;;;;;;21.40;1.25;;;24.00;99.90;26.30;101401.00;;;;6311215;22;20559;-77
2023/08/15 09:29:26;;;;;;;0.10;0.10;;;23.70;99.90;27.00;101413.00;;;;6285320;22;20213;-75
2023/08/15 09:31:52;;;;;;;0.20;0.10;;;24.00;99.90;27.30;101440.00;;;;6311702;22;20151;-75
2023/08/15 09:34:18;;;;;;;0.30;0.30;;;24.20;99.90;28.30;101442.00;;;;6339121;22;20466;-77
2023/08/15 09:36:44;;;;;;;4.22;0.73;;;24.30;99.90;27.10;101454.00;;;;6311274;22;20156;-77
2023/08/15 09:39:16;;;;;;;0.98;0.80;;;24.30;99.90;26.30;101394.00;;;;6285689;22;20152;-76
2023/08/15 09:41:46;;;;;;;6.93;0.77;;;24.00;99.90;27.00;101422.00;;;;6338682;22;20148;-76
2023/08/15 09:44:38;;;;;;;0.38;0.38;;;24.00;99.90;26.80;101456.00;;;;6311744;22;20170;-76
2023/08/15 09:47:13;;;;;;;1.00;0.90;;;24.40;99.90;27.50;101468.00;;;;6313121;22;20140;-75
2023/08/15 09:49:48;;;;;;;3.30;0.80;;;24.60;99.90;27.00;101431.00;;;;6310913;22;20563;-76
2023/08/15 09:52:15;;;;;;;1.65;0.30;;;24.50;99.90;27.00;101478.00;;;;6311377;22;20188;-76
2023/08/15 09:54:45;;;;;;;1.17;1.08;;;24.40;99.90;27.00;101455.00;;;;6285913;22;20155;-76
2023/08/15 09:57:11;;;;;;;2.17;0.43;;;24.30;99.90;27.50;101473.00;;;;6285430;22;20189;-77
2023/08/15 09:59:43;;;;;;;1.33;0.63;;;24.40;99.90;28.40;101487.00;;;;6311103;22;20256;-77
2023/08/15 10:02:22;;;;;;;0.50;0.50;;;25.00;99.90;27.80;101498.00;;;;6311194;22;20599;-76
2023/08/15 10:05:18;;;;;;;1.65;0.63;;;25.10;99.90;29.20;101496.00;;;;6311417;22;20155;-78
2023/08/15 10:08:11;;;;;;;0.10;0.10;;;25.40;99.90;29.10;101502.00;;;;6311807;22;20159;-75
2023/08/15 10:10:43;;;;;;;0.10;0.10;;;25.70;99.90;29.70;101527.00;;;;6305844;22;20592;-74
2023/08/15 10:13:32;;;;;;;2.40;0.80;;;26.10;99.90;32.00;101501.00;;;;6312240;22;20140;-74
2023/08/15 10:16:04;;;;;;;0.25;0.25;;;27.30;99.90;33.20;101494.00;;;;6311427;22;20439;-74
2023/08/15 10:18:33;;;;;;;0.82;0.82;;;28.30;99.90;30.70;101521.00;;;;6285659;22;20152;-73
2023/08/15 10:33:32;;;;;;;0.10;0.10;;;25.80;99.90;31.20;101485.00;;;;5159427;27;20587;-75
2023/08/15 10:36:08;;;;;;;0.20;0.20;;;26.70;99.90;31.50;101533.00;;;;5129195;27;20195;-74
2023/08/15 10:38:44;;;;;;;0.10;0.10;;;27.90;99.90;31.80;101538.00;;;;5136037;27;20180;-74
2023/08/15 10:41:23;;;;;;;0.57;0.57;;;27.70;99.90;32.00;101528.00;;;;5109401;27;20191;-74
2023/08/15 10:43:54;;;;;;;2.08;1.10;;;27.70;99.90;32.00;101532.00;;;;5104291;28;20198;-74
2023/08/15 10:46:30;;;;;;;1.02;0.30;;;27.90;99.90;28.40;101579.00;;;;5128868;27;20179;-74
2023/08/15 10:49:23;;;;;;;0.32;0.32;;;26.40;99.90;26.90;101567.00;;;;5129409;27;20186;-75
2023/08/15 10:51:59;;;;;;;0.57;0.40;;;24.90;99.90;27.50;101527.00;;;;5089360;28;20219;-75
2023/08/15 10:54:46;;;;;;;0.10;0.10;;;24.70;99.90;29.90;101524.00;;;;5132562;27;20289;-76
2023/08/15 10:57:12;;;;;;;0.35;0.20;;;25.50;99.90;28.40;101489.00;;;;5062863;28;20184;-76
2023/08/15 10:59:57;;;;;;;2.75;0.98;;;25.30;99.90;30.40;101520.00;;;;5112738;28;20546;-77
2023/08/15 11:03:12;;;;;;;0.10;0.10;;;26.20;99.90;32.30;101535.00;;;;5125934;28;20637;-74
2023/08/15 11:05:38;;;;;;;1.80;0.50;;;27.30;99.90;29.00;101562.00;;;;5145336;27;20412;-76
2023/08/15 11:08:19;;;;;;;3.80;0.93;;;26.60;99.90;32.20;101539.00;;;;5112779;28;20266;-76
2023/08/15 11:10:54;;;;;;;0.30;0.30;;;28.00;99.90;30.00;101519.00;;;;5113215;28;20176;-74
2023/08/15 11:13:35;;;;;;;1.50;1.27;;;27.00;99.90;29.40;101554.00;;;;5119395;28;20234;-74
2023/08/15 11:16:01;;;;;;;0.10;0.10;;;26.90;99.90;31.80;101544.00;;;;5115769;27;20189;-74
2023/08/15 11:18:27;;;;;;;0.65;0.65;;;27.30;99.90;30.90;101556.00;;;;5115374;27;20239;-74
2023/08/15 11:20:59;;;;;;;0.10;0.10;;;27.60;99.90;31.20;101564.00;;;;5122318;28;20180;-74
2023/08/15 11:23:28;;;;;;;0.10;0.10;;;28.00;99.90;33.30;101530.00;;;;5100151;28;20626;-74
2023/08/15 11:26:03;;;;;;;0.10;0.10;;;28.50;99.90;34.80;101500.00;;;;5113546;27;20593;-73
2023/08/15 11:28:30;;;;;;;0.20;0.20;;;29.70;99.90;33.40;101516.00;;;;5105068;27;20201;-74
2023/08/15 11:30:58;;;;;;;0.10;0.10;;;30.20;99.90;34.40;101502.00;;;;5147373;27;20507;-75
2023/08/15 11:33:31;;;;;;;0.30;0.30;;;30.30;99.90;31.30;101561.00;;;;5102109;28;20230;-74
2023/08/15 11:36:02;;;;;;;0.10;0.10;;;28.70;99.90;30.80;101571.00;;;;5111997;28;20204;-74
2023/08/15 11:38:32;;;;;;;0.10;0.10;;;27.30;99.90;32.50;101566.00;;;;5114989;27;20175;-74
2023/08/15 11:41:02;;;;;;;1.65;0.77;;;27.70;99.90;32.40;101554.00;;;;5111909;28;20175;-74
2023/08/15 11:43:33;;;;;;;0.10;0.10;;;27.90;99.90;32.40;101565.00;;;;5112907;27;20195;-74
2023/08/15 11:46:09;;;;;;;0.10;0.10;;;28.10;99.90;32.60;101570.00;;;;5102884;27;20188;-74
2023/08/15 11:49:08;;;;;;;0.52;0.52;;;28.00;99.90;30.20;101612.00;;;;5098586;28;20638;-74
2023/08/15 11:51:44;;;;;;;1.35;1.25;;;27.50;99.90;29.20;101590.00;;;;5098179;27;20677;-76
2023/08/15 11:54:55;;;;;;;1.75;1.65;;;26.00;99.90;30.70;101591.00;;;;5097282;28;20199;-76
2023/08/15 11:57:44;;;;;;;0.73;0.73;;;26.00;99.90;29.50;101591.00;;;;5104672;27;20246;-76
2023/08/15 12:00:21;;;;;;;0.43;0.43;;;26.30;99.90;31.30;101567.00;;;;5099151;27;20226;-75
2023/08/15 12:03:04;;;;;;;5.88;1.33;;;26.50;99.90;30.30;101607.00;;;;5107505;27;20184;-74
2023/08/15 12:05:30;;;;;;;0.10;0.10;;;27.00;99.90;28.90;101570.00;;;;5114669;27;20184;-76
2023/08/15 12:08:01;;;;;;;0.30;0.30;;;25.90;99.90;30.90;101569.00;;;;5125771;27;20183;-76
2023/08/15 12:10:31;;;;;;;2.05;1.13;;;26.40;99.90;30.20;101591.00;;;;5101163;27;20244;-74
2023/08/15 12:13:08;;;;;;;0.10;0.10;;;26.70;99.90;31.00;101568.00;;;;5099096;27;20215;-76
2023/08/15 12:15:39;;;;;;;0.10;0.10;;;26.50;99.90;32.00;101578.00;;;;5097130;28;20192;-75
2023/08/15 12:18:08;;;;;;;0.10;0.10;;;27.00;99.90;32.30;101537.00;;;;5098262;28;20195;-75
2023/08/15 12:20:45;;;;;;;1.55;0.85;;;27.60;99.90;29.50;101592.00;;;;5122407;27;20219;-76
2023/08/15 12:23:11;;;;;;;0.40;0.40;;;26.50;99.90;30.10;101574.00;;;;5101014;27;20699;-76
2023/08/15 12:25:58;;;;;;;0.20;0.20;;;26.20;99.90;31.60;101570.00;;;;5117507;27;20232;-76
2023/08/15 12:28:27;;;;;;;0.10;0.10;;;26.70;99.90;32.30;101573.00;;;;5115795;27;20654;-76
2023/08/15 12:30:58;;;;;;;1.38;1.33;;;27.10;99.90;32.20;101583.00;;;;5097328;28;20317;-73
2023/08/15 12:33:36;;;;;;;0.15;0.13;;;27.60;99.90;30.80;101556.00;;;;5127863;27;20208;-74
2023/08/15 12:36:05;;;;;;;4.80;0.70;;;27.00;99.90;29.30;101578.00;;;;5121696;27;20214;-74
2023/08/15 12:38:30;;;;;;;0.15;0.15;;;26.20;99.90;31.90;101581.00;;;;5100472;27;20182;-76
2023/08/15 12:41:19;;;;;;;0.10;0.10;;;26.80;99.90;32.30;101587.00;;;;5125025;27;20188;-73
2023/08/15 12:44:05;;;;;;;0.47;0.47;;;27.40;99.90;28.70;101593.00;;;;5092629;27;20594;-75
2023/08/15 12:46:37;;;;;;;1.88;1.65;;;26.40;99.90;30.50;101571.00;;;;5083380;27;20183;-76
2023/08/15 12:49:03;;;;;;;0.10;0.10;;;26.40;99.90;29.40;101550.00;;;;5097477;28;20634;-75
2023/08/15 12:51:31;;;;;;;1.38;0.85;;;26.00;99.90;28.40;101517.00;;;;5115323;27;20700;-77
2023/08/15 12:54:00;;;;;;;0.10;0.10;;;25.40;99.90;31.20;101504.00;;;;5125937;27;20180;-76
2023/08/15 12:56:31;;;;;;;0.63;0.63;;;26.30;99.90;32.20;101558.00;;;;5103385;28;20212;-74
2023/08/15 12:59:00;;;;;;;0.10;0.10;;;27.10;99.90;32.90;101570.00;;;;5103078;27;20194;-74
2023/08/15 13:01:29;;;;;;;0.10;0.10;;;27.90;99.90;33.60;101570.00;;;;5109702;28;20191;-74
2023/08/15 13:03:55;;;;;;;2.65;1.10;;;28.40;99.90;31.40;101591.00;;;;5092622;28;20176;-74
2023/08/15 13:06:30;;;;;;;0.30;0.30;;;27.90;99.90;30.10;101589.00;;;;5095608;28;20180;-75
2023/08/15 13:08:56;;;;;;;0.77;0.77;;;26.70;99.90;29.70;101589.00;;;;5099965;28;20176;-74
2023/08/15 13:11:25;;;;;;;0.10;0.10;;;26.60;99.90;31.60;101587.00;;;;5108467;27;20206;-74
2023/08/15 13:13:51;;;;;;;0.88;0.40;;;27.00;99.90;32.20;101590.00;;;;5106713;27;20188;-74
2023/08/15 13:16:20;;;;;;;0.10;0.10;;;27.70;99.90;32.70;101590.00;;;;5107528;28;20301;-74
2023/08/15 13:18:46;;;;;;;0.10;0.10;;;27.90;99.90;32.50;101551.00;;;;5096354;27;20184;-74
2023/08/15 13:21:12;;;;;;;0.20;0.20;;;28.10;99.90;31.90;101595.00;;;;5124362;27;20218;-76
2023/08/15 13:23:38;;;;;;;0.20;0.20;;;27.70;99.90;30.20;101618.00;;;;5086871;27;20219;-77
2023/08/15 13:26:09;;;;;;;0.10;0.10;;;26.70;99.90;31.90;101604.00;;;;5114512;27;20239;-76
2023/08/15 13:28:35;;;;;;;0.10;0.10;;;27.00;99.90;32.30;101592.00;;;;5119152;27;20173;-75
2023/08/15 13:31:09;;;;;;;0.10;0.10;;;27.60;99.90;32.40;101587.00;;;;5102031;27;20179;-74
2023/08/15 13:33:35;;;;;;;0.30;0.30;;;28.00;99.90;33.10;101536.00;;;;5102259;27;20211;-74
2023/08/15 13:36:00;;;;;;;0.65;0.45;;;28.30;99.90;33.40;101561.00;;;;5126196;27;20227;-73
2023/08/15 13:38:29;;;;;;;1.45;1.00;;;28.70;99.90;31.30;101598.00;;;;5109308;27;20239;-73
2023/08/15 13:40:56;;;;;;;0.10;0.10;;;28.30;99.90;30.10;101620.00;;;;5119438;27;20258;-73
2023/08/15 13:43:25;;;;;;;0.20;0.20;;;27.40;99.90;28.90;101624.00;;;;5105108;28;20653;-72
2023/08/15 13:45:52;;;;;;;0.10;0.10;;;26.60;99.90;31.50;101602.00;;;;5102409;27;20544;-73
2023/08/15 13:48:18;;;;;;;0.10;0.10;;;26.90;99.90;32.40;101606.00;;;;5099259;27;20214;-74
2023/08/15 13:50:46;;;;;;;0.10;0.10;;;27.40;99.90;32.70;101585.00;;;;5115668;27;20218;-73
2023/08/15 13:53:30;;;;;;;0.95;0.95;;;27.90;99.90;33.40;101593.00;;;;5101531;28;20207;-72
2023/08/15 13:55:56;;;;;;;2.50;0.40;;;28.30;99.90;33.60;101579.00;;;;5088731;27;20183;-73
2023/08/15 13:58:24;;;;;;;0.10;0.10;;;28.60;99.90;34.00;101571.00;;;;5102443;27;20207;-74
2023/08/15 14:00:50;;;;;;;0.30;0.30;;;28.90;99.90;32.60;101590.00;;;;5108119;28;20180;-74
2023/08/15 14:03:29;;;;;;;0.17;0.17;;;28.50;99.90;33.20;101578.00;;;;5101221;27;20210;-73
2023/08/15 14:05:59;;;;;;;0.50;0.50;;;28.40;99.90;33.40;101595.00;;;;5105604;28;20187;-73
2023/08/15 14:08:25;;;;;;;0.10;0.10;;;28.40;99.90;33.30;101605.00;;;;5095150;28;20180;-73
2023/08/15 14:10:54;;;;;;;0.10;0.10;;;28.30;99.90;31.50;101634.00;;;;5097237;28;20188;-73
2023/08/15 14:13:32;;;;;;;0.95;0.95;;;27.50;99.90;31.60;101625.00;;;;5086513;28;20694;-74
2023/08/15 14:16:16;;;;;;;1.23;1.23;;;27.40;99.90;31.80;101588.00;;;;5098840;27;20175;-73
2023/08/15 14:18:45;;;;;;;1.45;0.82;;;27.40;99.90;32.60;101602.00;;;;5119592;27;20203;-73
2023/08/15 14:21:11;;;;;;;0.20;0.20;;;27.80;99.90;29.50;101602.00;;;;5125220;27;20225;-73
2023/08/15 14:23:40;;;;;;;0.20;0.20;;;26.70;99.90;32.00;101624.00;;;;5131519;27;20179;-73
2023/08/15 14:26:14;;;;;;;0.17;0.17;;;27.10;99.90;32.60;101604.00;;;;5112069;28;20188;-73
2023/08/15 14:28:49;;;;;;;0.10;0.10;;;27.70;99.90;32.90;101594.00;;;;5127158;27;20248;-73
2023/08/15 14:31:15;;;;;;;0.10;0.10;;;28.20;99.90;32.90;101626.00;;;;5106312;28;20170;-73
2023/08/15 14:33:47;;;;;;;0.75;0.73;;;28.20;99.90;32.60;101630.00;;;;5120126;28;20180;-74
2023/08/15 14:36:24;;;;;;;1.20;1.17;;;28.30;99.90;32.60;101637.00;;;;5130832;28;20172;-72
2023/08/15 14:38:50;;;;;;;0.10;0.10;;;28.10;99.90;31.80;101642.00;;;;5125646;28;20210;-73
2023/08/15 14:41:18;;;;;;;0.28;0.28;;;27.70;99.90;31.80;101644.00;;;;5123075;28;20215;-73
2023/08/15 14:43:50;;;;;;;1.85;1.00;;;27.30;99.90;31.80;101651.00;;;;5100139;28;20199;-73
2023/08/15 14:46:27;;;;;;;0.85;0.85;;;27.20;99.90;32.00;101647.00;;;;5107634;28;20253;-73
2023/08/15 14:48:53;;;;;;;0.47;0.40;;;27.30;99.90;31.10;101662.00;;;;5115825;28;20267;-73
2023/08/15 14:51:34;;;;;;;0.20;0.20;;;27.00;99.90;30.80;101668.00;;;;5109870;28;20607;-73
2023/08/15 14:54:00;;;;;;;0.30;0.30;;;26.80;99.90;30.70;101670.00;;;;5114437;28;20591;-73
2023/08/15 14:56:36;;;;;;;0.20;0.20;;;26.70;99.90;31.50;101654.00;;;;5096824;28;20238;-74
2023/08/15 14:59:10;;;;;;;0.10;0.10;;;27.00;99.90;32.00;101648.00;;;;5127136;28;20615;-73
2023/08/15 15:01:48;;;;;;;0.10;0.10;;;27.20;99.90;31.50;101649.00;;;;5129836;28;20194;-73
2023/08/15 15:04:17;;;;;;;0.10;0.10;;;27.20;99.90;31.80;101630.00;;;;5094709;28;20192;-73
2023/08/15 15:06:45;;;;;;;0.15;0.15;;;27.20;99.90;32.10;101640.00;;;;5101680;28;20207;-73
2023/08/15 15:09:17;;;;;;;0.10;0.10;;;27.40;99.90;32.60;101644.00;;;;5100185;28;20806;-73
2023/08/15 15:11:48;;;;;;;0.10;0.10;;;27.70;99.90;32.50;101645.00;;;;5098594;28;20206;-73
2023/08/15 15:14:26;;;;;;;0.32;0.32;;;27.80;99.90;32.90;101631.00;;;;5086403;28;20196;-73
2023/08/15 15:17:09;;;;;;;0.25;0.25;;;27.90;99.90;32.20;101650.00;;;;5126715;28;20270;-72
2023/08/15 15:19:40;;;;;;;1.27;1.20;;;27.80;99.90;31.30;101651.00;;;;5091182;28;20184;-71
2023/08/15 15:22:06;;;;;;;0.10;0.10;;;27.30;99.90;31.30;101656.00;;;;5117495;27;20175;-73
2023/08/15 15:24:32;;;;;;;0.20;0.20;;;27.00;99.90;31.50;101659.00;;;;5124751;27;20240;-71
2023/08/15 15:27:07;;;;;;;1.90;0.88;;;27.00;99.90;31.20;101658.00;;;;5121079;27;20187;-73
2023/08/15 15:29:39;;;;;;;0.10;0.10;;;26.90;99.90;31.40;101670.00;;;;5120217;27;20195;-73
2023/08/15 15:32:05;;;;;;;0.20;0.20;;;26.90;99.90;31.50;101662.00;;;;5111165;28;20696;-73
2023/08/15 15:34:31;;;;;;;0.15;0.15;;;26.90;99.90;31.50;101667.00;;;;5109685;27;20580;-73
2023/08/15 15:37:01;;;;;;;0.55;0.55;;;26.90;99.90;31.40;101669.00;;;;5109361;27;20195;-72
2023/08/15 15:39:27;;;;;;;0.73;0.73;;;26.90;99.90;32.00;101660.00;;;;5112572;27;20545;-73
2023/08/15 15:41:58;;;;;;;1.55;0.75;;;27.00;99.90;32.40;101654.00;;;;5135078;27;20272;-73
2023/08/15 15:44:25;;;;;;;5.05;4.68;;;27.30;99.90;30.30;101689.00;;;;5095225;28;20184;-73
2023/08/15 15:46:52;;;;;;;0.40;0.40;;;26.90;99.90;31.00;101671.00;;;;5101370;27;20267;-73
2023/08/15 15:49:26;;;;;;;0.20;0.20;;;26.70;99.90;30.90;101678.00;;;;5123805;27;20186;-73
2023/08/15 15:51:54;;;;;;;0.63;0.63;;;26.70;99.90;31.30;101656.00;;;;5108504;27;20192;-74
2023/08/15 15:54:47;;;;;;;0.20;0.20;;;26.70;99.90;30.70;101678.00;;;;5105269;28;20598;-75
2023/08/15 15:57:16;;;;;;;0.20;0.20;;;26.20;99.90;30.70;101678.00;;;;5111485;28;20188;-73
2023/08/15 16:00:16;;;;;;;0.17;0.17;;;26.40;99.90;30.40;101668.00;;;;5103986;28;20187;-74
2023/08/15 16:02:49;;;;;;;0.30;0.30;;;26.10;99.90;30.30;101670.00;;;;5107174;27;20309;-74
2023/08/15 16:05:23;;;;;;;1.08;1.08;;;26.10;99.90;31.00;101662.00;;;;5107425;28;20184;-75
2023/08/15 16:08:13;;;;;;;3.83;2.92;;;26.20;99.90;30.90;101653.00;;;;5100500;28;20180;-74
2023/08/15 16:10:46;;;;;;;0.57;0.57;;;26.30;99.90;30.60;101665.00;;;;5086989;28;20196;-75
2023/08/15 16:13:16;;;;;;;1.08;0.77;;;26.00;99.90;31.40;101664.00;;;;5125624;27;20216;-75
2023/08/15 16:15:42;;;;;;;7.05;6.70;;;26.30;99.90;31.50;101653.00;;;;5134902;27;20240;-73
2023/08/15 16:18:10;;;;;;;0.55;0.55;;;26.50;99.90;30.80;101630.00;;;;5125814;27;20681;-73
2023/08/15 16:20:36;;;;;;;0.38;0.30;;;26.50;99.90;31.00;101675.00;;;;5111267;27;20180;-73
2023/08/15 16:23:06;;;;;;;0.50;0.50;;;26.40;99.90;30.70;101670.00;;;;5109707;27;20191;-73
2023/08/15 16:25:42;;;;;;;1.20;0.45;;;26.40;99.90;30.00;101690.00;;;;5113201;27;20176;-73
2023/08/15 16:28:08;;;;;;;0.25;0.25;;;26.10;99.90;30.20;101687.00;;;;5130353;27;20677;-73
2023/08/15 16:30:34;;;;;;;0.10;0.10;;;26.00;99.90;31.00;101680.00;;;;5109679;27;20733;-73
2023/08/15 16:33:06;;;;;;;0.20;0.20;;;26.20;99.90;31.20;101670.00;;;;5110912;27;20231;-73
2023/08/15 16:35:35;;;;;;;0.57;0.57;;;26.30;99.90;31.00;101676.00;;;;5100333;27;20625;-73
2023/08/15 16:38:08;;;;;;;0.47;0.47;;;26.40;99.90;30.30;101684.00;;;;5122384;27;20183;-72
2023/08/15 16:40:34;;;;;;;0.20;0.20;;;26.20;99.90;30.40;101687.00;;;;5109702;27;20267;-72
2023/08/15 16:43:10;;;;;;;0.30;0.30;;;26.00;99.90;29.70;101692.00;;;;5121426;27;20600;-73
2023/08/15 16:45:38;;;;;;;0.63;0.63;;;25.80;99.90;29.70;101685.00;;;;5130093;27;20184;-74
2023/08/15 16:48:24;;;;;;;0.43;0.43;;;25.60;99.90;30.00;101676.00;;;;5096764;28;20653;-74
2023/08/15 16:51:10;;;;;;;0.20;0.20;;;25.60;99.90;29.90;101651.00;;;;5109393;27;20637;-75
2023/08/15 16:53:56;;;;;;;0.10;0.10;;;25.50;99.90;29.50;101689.00;;;;5104885;27;20228;-74
2023/08/15 16:56:48;;;;;;;0.10;0.10;;;25.40;99.90;29.20;101698.00;;;;5127191;27;20188;-74
2023/08/15 16:59:57;;;;;;;0.20;0.20;;;25.20;99.90;29.60;101661.00;;;;5082490;28;20541;-73
2023/08/15 17:02:50;;;;;;;1.85;0.60;;;25.20;99.90;30.20;101697.00;;;;5103994;27;20184;-75
2023/08/15 17:05:28;;;;;;;0.38;0.38;;;25.40;99.90;29.50;101693.00;;;;5090048;28;20271;-74
2023/08/15 17:07:59;;;;;;;0.20;0.20;;;25.20;99.90;29.60;101698.00;;;;5085353;27;20237;-74
2023/08/15 17:11:03;;;;;;;0.10;0.10;;;25.10;99.90;29.00;101716.00;;;;5096583;28;20218;-74
2023/08/15 17:14:00;;;;;;;0.10;0.10;;;24.90;99.90;29.60;101709.00;;;;5106838;27;20226;-74
2023/08/15 17:17:04;;;;;;;0.10;0.10;;;24.80;99.90;29.80;101708.00;;;;5011926;28;20249;-74
2023/08/15 17:19:53;;;;;;;0.10;0.10;;;25.00;99.90;29.80;101698.00;;;;5012202;28;20554;-74
2023/08/15 17:22:42;;;;;;;0.20;0.20;;;25.00;99.90;29.20;101722.00;;;;5000820;28;20194;-75
2023/08/15 17:25:31;;;;;;;0.13;0.13;;;24.90;99.90;29.30;101722.00;;;;5018019;28;20205;-75
2023/08/15 17:28:26;;;;;;;0.17;0.17;;;24.80;99.90;28.80;101735.00;;;;5098106;27;20315;-74
2023/08/15 17:31:32;;;;;;;4.05;2.22;;;24.60;99.90;29.00;101733.00;;;;5094702;28;20261;-73
2023/08/15 17:34:19;;;;;;;0.10;0.10;;;24.40;99.90;28.90;101732.00;;;;5097458;27;20204;-74
2023/08/15 17:37:06;;;;;;;0.40;0.40;;;24.40;99.90;28.60;101744.00;;;;5106704;27;20545;-75
2023/08/15 17:39:57;;;;;;;1.35;0.40;;;24.30;99.90;29.10;101726.00;;;;5101565;27;20191;-74
2023/08/15 17:42:41;;;;;;;0.15;0.15;;;24.40;99.90;28.90;101729.00;;;;5105875;28;20245;-74
2023/08/15 17:45:16;;;;;;;0.45;0.45;;;24.30;99.90;28.60;101726.00;;;;5126688;27;20183;-74
2023/08/15 17:48:00;;;;;;;0.60;0.60;;;24.30;99.90;28.20;101727.00;;;;5109031;27;20202;-73
2023/08/15 17:50:48;;;;;;;0.13;0.13;;;24.00;99.90;27.70;101714.00;;;;5097259;27;20231;-74
2023/08/15 17:53:33;;;;;;;0.20;0.20;;;23.70;99.90;27.50;101736.00;;;;5103484;27;20687;-74
2023/08/15 17:56:17;;;;;;;0.20;0.20;;;23.50;99.90;28.00;101717.00;;;;5083373;28;20184;-73
2023/08/15 17:59:27;;;;;;;0.30;0.30;;;23.60;99.90;28.00;101717.00;;;;5109293;28;20180;-74
2023/08/15 18:02:16;;;;;;;1.33;0.82;;;23.60;99.90;28.00;101715.00;;;;5121630;27;20180;-74
2023/08/15 18:05:12;;;;;;;0.20;0.20;;;23.50;99.90;27.10;101723.00;;;;5105242;27;20581;-74
2023/08/15 18:07:57;;;;;;;0.20;0.20;;;23.40;99.90;27.10;101719.00;;;;5079019;28;20199;-74
2023/08/15 18:10:47;;;;;;;0.20;0.20;;;23.30;99.90;27.20;101725.00;;;;5112240;27;20203;-74
2023/08/15 18:13:40;;;;;;;0.20;0.20;;;23.20;99.90;27.40;101716.00;;;;5084399;27;20231;-75
2023/08/15 18:16:28;;;;;;;0.20;0.20;;;23.10;99.90;27.90;101726.00;;;;5105224;27;20183;-74
2023/08/15 18:19:25;;;;;;;0.20;0.20;;;23.30;99.90;27.40;101747.00;;;;5095905;28;20184;-74
2023/08/15 18:22:16;;;;;;;0.20;0.20;;;23.20;99.90;27.80;101744.00;;;;5123738;28;20179;-74
2023/08/15 18:25:05;;;;;;;0.10;0.10;;;23.30;99.90;27.40;101744.00;;;;5104137;28;20214;-75
2023/08/15 18:27:53;;;;;;;0.10;0.10;;;23.10;99.90;27.30;101700.00;;;;5124789;27;20191;-75
2023/08/15 18:30:59;;;;;;;0.15;0.15;;;23.00;99.90;27.40;101750.00;;;;5105625;28;20188;-74
2023/08/15 18:36:58;;;;;;;0.20;0.20;;;22.80;99.90;26.80;101751.00;;;;5117014;28;20180;-75
2023/08/15 18:39:50;;;;;;;0.10;0.10;;;22.70;99.90;26.80;101749.00;;;;5091088;28;20195;-74